createdAt,value
2018-09-13T00:00:02.009Z,798.55
2018-09-13T00:00:05.909Z,798.54
2018-09-13T00:00:10.109Z,798.52
2018-09-13T00:00:14.312Z,798.5
2018-09-13T00:00:18.624Z,798.52
2018-09-13T00:00:22.930Z,798.5
2018-09-13T00:00:27.023Z,798.51
2018-09-13T00:00:31.015Z,798.48
2018-09-13T00:00:35.227Z,798.49
2018-09-13T00:00:39.423Z,798.48
2018-09-13T00:00:43.523Z,798.47
2018-09-13T00:00:47.731Z,798.48
2018-09-13T00:00:51.941Z,798.41
2018-09-13T00:00:56.151Z,798.45
2018-09-13T00:01:00.458Z,798.39
2018-09-13T00:01:04.655Z,798.46
2018-09-13T00:01:08.968Z,798.45
2018-09-13T00:01:12.848Z,798.45
2018-09-13T00:01:16.836Z,798.43
2018-09-13T00:01:21.037Z,798.44
2018-09-13T00:01:25.241Z,798.41
2018-09-13T00:01:29.393Z,798.44
2018-09-13T00:01:33.388Z,798.41
2018-09-13T00:01:37.373Z,798.4
2018-09-13T00:01:41.589Z,798.42
2018-09-13T00:01:45.682Z,798.38
2018-09-13T00:01:49.987Z,798.34
2018-09-13T00:01:54.192Z,798.34
2018-09-13T00:01:58.509Z,798.36
2018-09-13T00:02:02.752Z,798.35
2018-09-13T00:02:06.950Z,798.35
2018-09-13T00:02:11.148Z,798.33
2018-09-13T00:02:15.348Z,798.34
2018-09-13T00:02:19.442Z,798.33
2018-09-13T00:02:23.542Z,798.33
2018-09-13T00:02:27.746Z,798.33
2018-09-13T00:02:32.058Z,798.31
2018-09-13T00:02:36.152Z,798.28
2018-09-13T00:02:40.257Z,798.28
2018-09-13T00:02:44.351Z,798.3
2018-09-13T00:02:48.661Z,798.27
2018-09-13T00:02:52.879Z,798.29
2018-09-13T00:02:57.087Z,798.3
2018-09-13T00:03:01.345Z,798.27
2018-09-13T00:03:05.644Z,798.27
2018-09-13T00:03:09.841Z,798.25
2018-09-13T00:03:14.047Z,798.22
2018-09-13T00:03:18.157Z,798.24
2018-09-13T00:03:22.255Z,798.19
2018-09-13T00:03:26.348Z,798.21
2018-09-13T00:03:30.549Z,798.21
2018-09-13T00:03:34.802Z,798.23
2018-09-13T00:03:39.001Z,798.2
2018-09-13T00:03:43.196Z,798.16
2018-09-13T00:03:47.510Z,798.15
2018-09-13T00:03:51.601Z,798.21
2018-09-13T00:03:55.798Z,798.13
2018-09-13T00:03:59.999Z,798.14
2018-09-13T00:04:04.114Z,798.17
2018-09-13T00:04:08.315Z,798.21
2018-09-13T00:04:12.634Z,798.16
2018-09-13T00:04:16.831Z,798.11
2018-09-13T00:04:21.150Z,798.16
2018-09-13T00:04:25.373Z,798.13
2018-09-13T00:04:29.503Z,798.14
2018-09-13T00:04:33.811Z,798.12
2018-09-13T00:04:38.021Z,798.11
2018-09-13T00:04:42.221Z,798.12
2018-09-13T00:04:46.422Z,798.1
2018-09-13T00:04:50.628Z,798.1
2018-09-13T00:04:54.825Z,798.09
2018-09-13T00:04:58.821Z,798.02
2018-09-13T00:05:03.035Z,798.06
2018-09-13T00:05:07.130Z,798.05
2018-09-13T00:05:11.122Z,798.05
2018-09-13T00:05:15.336Z,798.04
2018-09-13T00:05:19.535Z,798.07
2018-09-13T00:05:23.740Z,798.05
2018-09-13T00:05:27.951Z,798.04
2018-09-13T00:05:32.260Z,798.02
2018-09-13T00:05:36.145Z,798.02
2018-09-13T00:05:40.278Z,798.02
2018-09-13T00:05:44.511Z,798
2018-09-13T00:05:49.033Z,798.01
2018-09-13T00:05:53.630Z,797.98
2018-09-13T00:05:58.556Z,797.97
2018-09-13T00:06:03.067Z,797.96
2018-09-13T00:06:07.160Z,797.97
2018-09-13T00:06:11.364Z,797.99
2018-09-13T00:06:15.462Z,797.96
2018-09-13T00:06:19.776Z,797.98
2018-09-13T00:06:23.986Z,798
2018-09-13T00:06:28.190Z,797.94
2018-09-13T00:06:32.395Z,797.99
2018-09-13T00:06:36.601Z,797.96
2018-09-13T00:06:40.701Z,797.98
2018-09-13T00:06:44.902Z,797.95
2018-09-13T00:06:49.107Z,797.96
2018-09-13T00:06:53.102Z,797.94
2018-09-13T00:06:57.411Z,797.97
2018-09-13T00:07:01.921Z,797.94
2018-09-13T00:07:06.117Z,797.92
2018-09-13T00:07:10.318Z,797.92
2018-09-13T00:07:14.525Z,797.91
2018-09-13T00:07:18.844Z,797.9
2018-09-13T00:07:23.147Z,797.92
2018-09-13T00:07:27.348Z,797.88
2018-09-13T00:07:31.441Z,797.91
2018-09-13T00:07:35.667Z,797.85
2018-09-13T00:07:39.793Z,797.9
2018-09-13T00:07:44.288Z,797.85
2018-09-13T00:07:48.615Z,797.89
2018-09-13T00:07:52.922Z,797.9
2018-09-13T00:07:57.129Z,797.88
2018-09-13T00:08:01.386Z,797.87
2018-09-13T00:08:05.423Z,797.84
2018-09-13T00:08:09.523Z,797.84
2018-09-13T00:08:13.833Z,797.85
2018-09-13T00:08:17.936Z,797.88
2018-09-13T00:08:21.923Z,797.85
2018-09-13T00:08:26.232Z,797.79
2018-09-13T00:08:30.440Z,797.84
2018-09-13T00:08:34.538Z,797.82
2018-09-13T00:08:38.644Z,797.85
2018-09-13T00:08:42.745Z,797.85
2018-09-13T00:08:47.055Z,797.84
2018-09-13T00:08:51.153Z,797.78
2018-09-13T00:08:55.363Z,797.79
2018-09-13T00:08:59.571Z,797.83
2018-09-13T00:09:03.884Z,797.79
2018-09-13T00:09:08.093Z,797.74
2018-09-13T00:09:12.359Z,797.79
2018-09-13T00:09:16.456Z,797.74
2018-09-13T00:09:20.558Z,797.81
2018-09-13T00:09:24.760Z,797.77
2018-09-13T00:09:28.861Z,797.78
2018-09-13T00:09:32.967Z,797.76
2018-09-13T00:09:37.278Z,797.71
2018-09-13T00:09:41.484Z,797.75
2018-09-13T00:09:45.578Z,797.77
2018-09-13T00:09:49.788Z,797.71
2018-09-13T00:09:53.996Z,797.75
2018-09-13T00:09:58.311Z,797.73
2018-09-13T00:10:02.307Z,797.71
2018-09-13T00:10:06.415Z,797.68
2018-09-13T00:10:10.750Z,797.69
2018-09-13T00:10:14.961Z,797.68
2018-09-13T00:10:18.948Z,797.73
2018-09-13T00:10:23.146Z,797.69
2018-09-13T00:10:27.349Z,797.67
2018-09-13T00:10:31.555Z,797.73
2018-09-13T00:10:35.541Z,797.68
2018-09-13T00:10:39.636Z,797.68
2018-09-13T00:10:43.837Z,797.67
2018-09-13T00:10:48.037Z,797.69
2018-09-13T00:10:52.344Z,797.66
2018-09-13T00:10:56.650Z,797.71
2018-09-13T00:11:00.856Z,797.66
2018-09-13T00:11:05.282Z,797.67
2018-09-13T00:11:09.623Z,797.62
2018-09-13T00:11:13.717Z,797.64
2018-09-13T00:11:17.810Z,797.62
2018-09-13T00:11:21.953Z,797.63
2018-09-13T00:11:26.161Z,797.61
2018-09-13T00:11:30.276Z,797.53
2018-09-13T00:11:34.599Z,797.55
2018-09-13T00:11:38.698Z,797.55
2018-09-13T00:11:42.919Z,797.55
2018-09-13T00:11:47.225Z,797.51
2018-09-13T00:11:51.448Z,797.56
2018-09-13T00:11:55.767Z,797.52
2018-09-13T00:11:59.969Z,797.54
2018-09-13T00:12:03.955Z,797.5
2018-09-13T00:12:08.162Z,797.48
2018-09-13T00:12:12.262Z,797.52
2018-09-13T00:12:16.570Z,797.51
2018-09-13T00:12:20.887Z,797.48
2018-09-13T00:12:25.100Z,797.49
2018-09-13T00:12:29.405Z,797.46
2018-09-13T00:12:33.614Z,797.47
2018-09-13T00:12:37.815Z,797.48
2018-09-13T00:12:41.930Z,797.45
2018-09-13T00:12:46.132Z,797.43
2018-09-13T00:12:50.437Z,797.48
2018-09-13T00:12:54.799Z,797.42
2018-09-13T00:12:59.114Z,797.44
2018-09-13T00:13:03.211Z,797.45
2018-09-13T00:13:07.518Z,797.47
2018-09-13T00:13:11.839Z,797.42
2018-09-13T00:13:16.039Z,797.44
2018-09-13T00:13:20.247Z,797.42
2018-09-13T00:13:24.462Z,797.41
2018-09-13T00:13:28.778Z,797.4
2018-09-13T00:13:33.017Z,797.41
2018-09-13T00:13:37.218Z,797.37
2018-09-13T00:13:41.314Z,797.38
2018-09-13T00:13:45.402Z,797.37
2018-09-13T00:13:49.604Z,797.35
2018-09-13T00:13:53.711Z,797.35
2018-09-13T00:13:57.803Z,797.35
2018-09-13T00:14:02.293Z,797.32
2018-09-13T00:14:06.397Z,797.32
2018-09-13T00:14:10.494Z,797.29
2018-09-13T00:14:14.718Z,797.29
2018-09-13T00:14:18.923Z,797.3
2018-09-13T00:14:23.236Z,797.25
2018-09-13T00:14:27.335Z,797.26
2018-09-13T00:14:31.640Z,797.26
2018-09-13T00:14:35.837Z,797.22
2018-09-13T00:14:39.938Z,797.25
2018-09-13T00:14:44.245Z,797.21
2018-09-13T00:14:48.515Z,797.2
2018-09-13T00:14:52.821Z,797.21
2018-09-13T00:14:57.126Z,797.19
2018-09-13T00:15:01.224Z,797.2
2018-09-13T00:15:05.217Z,797.21
2018-09-13T00:15:09.419Z,797.18
2018-09-13T00:15:13.619Z,797.16
2018-09-13T00:15:17.619Z,797.08
2018-09-13T00:15:21.824Z,797.1
2018-09-13T00:15:26.028Z,797.12
2018-09-13T00:15:30.344Z,797.12
2018-09-13T00:15:34.557Z,797.09
2018-09-13T00:15:38.756Z,797.09
2018-09-13T00:15:43.070Z,797.06
2018-09-13T00:15:47.273Z,797.06
2018-09-13T00:15:51.265Z,797.05
2018-09-13T00:15:55.574Z,797.05
2018-09-13T00:15:59.819Z,797.03
2018-09-13T00:16:04.141Z,797.01
2018-09-13T00:16:08.344Z,797.07
2018-09-13T00:16:12.439Z,797.01
2018-09-13T00:16:16.745Z,797
2018-09-13T00:16:20.958Z,797
2018-09-13T00:16:25.048Z,796.99
2018-09-13T00:16:29.245Z,796.98
2018-09-13T00:16:33.340Z,796.97
2018-09-13T00:16:37.454Z,796.94
2018-09-13T00:16:41.444Z,796.92
2018-09-13T00:16:45.689Z,796.89
2018-09-13T00:16:49.886Z,796.89
2018-09-13T00:16:54.088Z,796.9
2018-09-13T00:16:58.293Z,796.9
2018-09-13T00:17:02.642Z,796.86
2018-09-13T00:17:06.839Z,796.85
2018-09-13T00:17:11.151Z,796.83
2018-09-13T00:17:15.456Z,796.84
2018-09-13T00:17:19.761Z,796.83
2018-09-13T00:17:24.066Z,796.78
2018-09-13T00:17:28.175Z,796.81
2018-09-13T00:17:32.385Z,796.76
2018-09-13T00:17:36.688Z,796.74
2018-09-13T00:17:40.903Z,796.74
2018-09-13T00:17:45.141Z,796.73
2018-09-13T00:17:49.237Z,796.7
2018-09-13T00:17:53.545Z,796.62
2018-09-13T00:17:57.877Z,796.65
2018-09-13T00:18:02.079Z,796.64
2018-09-13T00:18:06.337Z,796.63
2018-09-13T00:18:10.433Z,796.62
2018-09-13T00:18:14.644Z,796.61
2018-09-13T00:18:18.845Z,796.6
2018-09-13T00:18:23.042Z,796.58
2018-09-13T00:18:27.142Z,796.59
2018-09-13T00:18:31.450Z,796.51
2018-09-13T00:18:35.548Z,796.53
2018-09-13T00:18:39.848Z,796.51
2018-09-13T00:18:44.164Z,796.52
2018-09-13T00:18:48.375Z,796.48
2018-09-13T00:18:52.479Z,796.4
2018-09-13T00:18:56.825Z,796.44
2018-09-13T00:19:01.126Z,796.38
2018-09-13T00:19:05.113Z,796.38
2018-09-13T00:19:09.434Z,796.33
2018-09-13T00:19:13.747Z,796.31
2018-09-13T00:19:18.049Z,796.32
2018-09-13T00:19:22.361Z,796.33
2018-09-13T00:19:26.462Z,796.3
2018-09-13T00:19:30.768Z,796.29
2018-09-13T00:19:34.860Z,796.25
2018-09-13T00:19:39.061Z,796.26
2018-09-13T00:19:43.266Z,796.2
2018-09-13T00:19:47.575Z,796.2
2018-09-13T00:19:51.673Z,796.17
2018-09-13T00:19:55.972Z,796.18
2018-09-13T00:20:00.284Z,796.18
2018-09-13T00:20:04.393Z,796.11
2018-09-13T00:20:08.604Z,796.17
2018-09-13T00:20:12.912Z,796.13
2018-09-13T00:20:17.053Z,796.1
2018-09-13T00:20:21.361Z,796.1
2018-09-13T00:20:25.455Z,796.08
2018-09-13T00:20:29.657Z,796.07
2018-09-13T00:20:33.956Z,796.03
2018-09-13T00:20:38.153Z,796.04
2018-09-13T00:20:42.465Z,796
2018-09-13T00:20:46.557Z,796
2018-09-13T00:20:50.862Z,795.97
2018-09-13T00:20:54.954Z,795.97
2018-09-13T00:20:59.258Z,795.94
2018-09-13T00:21:03.239Z,795.92
2018-09-13T00:21:07.538Z,795.93
2018-09-13T00:21:11.737Z,795.92
2018-09-13T00:21:15.827Z,795.89
2018-09-13T00:21:20.134Z,795.91
2018-09-13T00:21:24.336Z,795.86
2018-09-13T00:21:28.436Z,795.84
2018-09-13T00:21:32.425Z,795.78
2018-09-13T00:21:36.620Z,795.77
2018-09-13T00:21:40.823Z,795.82
2018-09-13T00:21:44.928Z,795.78
2018-09-13T00:21:49.232Z,795.73
2018-09-13T00:21:53.432Z,795.76
2018-09-13T00:21:57.743Z,795.73
2018-09-13T00:22:01.847Z,795.72
2018-09-13T00:22:06.146Z,795.7
2018-09-13T00:22:10.451Z,795.68
2018-09-13T00:22:14.651Z,795.68
2018-09-13T00:22:18.741Z,795.63
2018-09-13T00:22:22.837Z,795.62
2018-09-13T00:22:26.969Z,795.62
2018-09-13T00:22:30.966Z,795.59
2018-09-13T00:22:35.269Z,795.56
2018-09-13T00:22:39.478Z,795.59
2018-09-13T00:22:43.787Z,795.55
2018-09-13T00:22:47.990Z,795.52
2018-09-13T00:22:52.313Z,795.52
2018-09-13T00:22:56.407Z,795.52
2018-09-13T00:23:00.392Z,795.51
2018-09-13T00:23:04.606Z,795.48
2018-09-13T00:23:08.917Z,795.47
2018-09-13T00:23:13.233Z,795.47
2018-09-13T00:23:17.218Z,795.45
2018-09-13T00:23:21.520Z,795.44
2018-09-13T00:23:25.733Z,795.41
2018-09-13T00:23:29.616Z,795.42
2018-09-13T00:23:33.814Z,795.42
2018-09-13T00:23:38.022Z,795.41
2018-09-13T00:23:42.010Z,795.4
2018-09-13T00:23:46.316Z,795.41
2018-09-13T00:23:50.409Z,795.36
2018-09-13T00:23:54.607Z,795.34
2018-09-13T00:23:58.918Z,795.36
2018-09-13T00:24:03.015Z,795.31
2018-09-13T00:24:07.224Z,795.33
2018-09-13T00:24:11.420Z,795.31
2018-09-13T00:24:15.344Z,795.29
2018-09-13T00:24:19.438Z,795.27
2018-09-13T00:24:23.743Z,795.29
2018-09-13T00:24:27.650Z,795.27
2018-09-13T00:24:31.961Z,795.27
2018-09-13T00:24:36.275Z,795.23
2018-09-13T00:24:40.470Z,795.26
2018-09-13T00:24:44.681Z,795.22
2018-09-13T00:24:48.778Z,795.23
2018-09-13T00:24:52.871Z,795.21
2018-09-13T00:24:57.182Z,795.2
2018-09-13T00:25:01.279Z,795.16
2018-09-13T00:25:05.477Z,795.16
2018-09-13T00:25:09.680Z,795.18
2018-09-13T00:25:14.036Z,795.17
2018-09-13T00:25:18.349Z,795.11
2018-09-13T00:25:22.551Z,795.08
2018-09-13T00:25:26.862Z,795.13
2018-09-13T00:25:31.063Z,795.11
2018-09-13T00:25:35.272Z,795.12
2018-09-13T00:25:39.583Z,795.1
2018-09-13T00:25:43.784Z,795.11
2018-09-13T00:25:48.091Z,795.1
2018-09-13T00:25:52.402Z,795.1
2018-09-13T00:25:56.708Z,795.07
2018-09-13T00:26:01.012Z,795.06
2018-09-13T00:26:04.997Z,795.03
2018-09-13T00:26:09.205Z,795.02
2018-09-13T00:26:13.512Z,795.05
2018-09-13T00:26:17.717Z,795.03
2018-09-13T00:26:21.929Z,794.97
2018-09-13T00:26:26.134Z,795.01
2018-09-13T00:26:30.227Z,795
2018-09-13T00:26:34.424Z,795
2018-09-13T00:26:38.632Z,794.93
2018-09-13T00:26:42.936Z,794.91
2018-09-13T00:26:47.136Z,794.96
2018-09-13T00:26:51.342Z,794.96
2018-09-13T00:26:55.650Z,794.93
2018-09-13T00:26:59.966Z,794.93
2018-09-13T00:27:04.068Z,794.91
2018-09-13T00:27:08.280Z,794.9
2018-09-13T00:27:12.480Z,794.91
2018-09-13T00:27:16.790Z,794.91
2018-09-13T00:27:20.985Z,794.86
2018-09-13T00:27:25.185Z,794.84
2018-09-13T00:27:29.491Z,794.84
2018-09-13T00:27:33.703Z,794.84
2018-09-13T00:27:38.010Z,794.86
2018-09-13T00:27:42.315Z,794.82
2018-09-13T00:27:46.524Z,794.85
2018-09-13T00:27:50.732Z,794.84
2018-09-13T00:27:54.820Z,794.81
2018-09-13T00:27:58.915Z,794.82
2018-09-13T00:28:03.109Z,794.83
2018-09-13T00:28:07.317Z,794.79
2018-09-13T00:28:11.519Z,794.75
2018-09-13T00:28:15.717Z,794.77
2018-09-13T00:28:19.912Z,794.78
2018-09-13T00:28:24.127Z,794.76
2018-09-13T00:28:28.435Z,794.71
2018-09-13T00:28:32.632Z,794.74
2018-09-13T00:28:36.837Z,794.74
2018-09-13T00:28:40.933Z,794.71
2018-09-13T00:28:45.137Z,794.73
2018-09-13T00:28:49.489Z,794.72
2018-09-13T00:28:53.789Z,794.72
2018-09-13T00:28:57.993Z,794.69
2018-09-13T00:29:02.307Z,794.7
2018-09-13T00:29:06.508Z,794.71
2018-09-13T00:29:10.712Z,794.65
2018-09-13T00:29:14.803Z,794.68
2018-09-13T00:29:19.000Z,794.7
2018-09-13T00:29:23.306Z,794.65
2018-09-13T00:29:27.400Z,794.65
2018-09-13T00:29:31.607Z,794.64
2018-09-13T00:29:35.701Z,794.64
2018-09-13T00:29:39.794Z,794.61
2018-09-13T00:29:44.105Z,794.63
2018-09-13T00:29:48.315Z,794.6
2018-09-13T00:29:52.623Z,794.63
2018-09-13T00:29:56.821Z,794.61
2018-09-13T00:30:01.019Z,794.61
2018-09-13T00:30:05.345Z,794.61
2018-09-13T00:30:09.543Z,794.6
2018-09-13T00:30:13.744Z,794.56
2018-09-13T00:30:17.948Z,794.52
2018-09-13T00:30:21.935Z,794.55
2018-09-13T00:30:26.045Z,794.55
2018-09-13T00:30:30.355Z,794.54
2018-09-13T00:30:34.550Z,794.57
2018-09-13T00:30:38.745Z,794.54
2018-09-13T00:30:43.049Z,794.53
2018-09-13T00:30:47.260Z,794.51
2018-09-13T00:30:51.458Z,794.51
2018-09-13T00:30:55.764Z,794.52
2018-09-13T00:30:59.964Z,794.47
2018-09-13T00:31:04.050Z,794.47
2018-09-13T00:31:08.350Z,794.49
2018-09-13T00:31:12.333Z,794.51
2018-09-13T00:31:16.431Z,794.47
2018-09-13T00:31:20.735Z,794.48
2018-09-13T00:31:25.045Z,794.48
2018-09-13T00:31:29.138Z,794.51
2018-09-13T00:31:33.452Z,794.43
2018-09-13T00:31:37.556Z,794.46
2018-09-13T00:31:41.764Z,794.48
2018-09-13T00:31:45.856Z,794.49
2018-09-13T00:31:49.843Z,794.47
2018-09-13T00:31:54.056Z,794.44
2018-09-13T00:31:58.254Z,794.43
2018-09-13T00:32:02.356Z,794.44
2018-09-13T00:32:06.557Z,794.45
2018-09-13T00:32:10.757Z,794.4
2018-09-13T00:32:15.062Z,794.39
2018-09-13T00:32:19.261Z,794.41
2018-09-13T00:32:23.351Z,794.41
2018-09-13T00:32:27.555Z,794.42
2018-09-13T00:32:31.541Z,794.42
2018-09-13T00:32:35.644Z,794.4
2018-09-13T00:32:39.845Z,794.39
2018-09-13T00:32:44.157Z,794.41
2018-09-13T00:32:48.367Z,794.39
2018-09-13T00:32:52.674Z,794.39
2018-09-13T00:32:56.875Z,794.38
2018-09-13T00:33:01.076Z,794.38
2018-09-13T00:33:05.331Z,794.37
2018-09-13T00:33:09.640Z,794.34
2018-09-13T00:33:13.854Z,794.35
2018-09-13T00:33:18.056Z,794.31
2018-09-13T00:33:22.368Z,794.35
2018-09-13T00:33:26.678Z,794.34
2018-09-13T00:33:30.901Z,794.33
2018-09-13T00:33:34.879Z,794.33
2018-09-13T00:33:39.093Z,794.29
2018-09-13T00:33:43.344Z,794.28
2018-09-13T00:33:47.651Z,794.32
2018-09-13T00:33:51.860Z,794.25
2018-09-13T00:33:56.065Z,794.28
2018-09-13T00:34:00.268Z,794.28
2018-09-13T00:34:04.523Z,794.31
2018-09-13T00:34:08.729Z,794.3
2018-09-13T00:34:12.941Z,794.28
2018-09-13T00:34:17.187Z,794.28
2018-09-13T00:34:21.492Z,794.28
2018-09-13T00:34:25.799Z,794.24
2018-09-13T00:34:29.910Z,794.25
2018-09-13T00:34:34.213Z,794.25
2018-09-13T00:34:38.448Z,794.25
2018-09-13T00:34:42.437Z,794.25
2018-09-13T00:34:46.636Z,794.22
2018-09-13T00:34:50.728Z,794.22
2018-09-13T00:34:55.034Z,794.19
2018-09-13T00:34:59.237Z,794.16
2018-09-13T00:35:03.655Z,794.16
2018-09-13T00:35:07.964Z,794.19
2018-09-13T00:35:12.271Z,794.13
2018-09-13T00:35:16.463Z,794.14
2018-09-13T00:35:20.661Z,794.11
2018-09-13T00:35:24.971Z,794.16
2018-09-13T00:35:29.178Z,794.14
2018-09-13T00:35:33.380Z,794.09
2018-09-13T00:35:37.690Z,794.17
2018-09-13T00:35:41.886Z,794.13
2018-09-13T00:35:45.977Z,794.14
2018-09-13T00:35:50.068Z,794.18
2018-09-13T00:35:54.273Z,794.14
2018-09-13T00:35:58.471Z,794.16
2018-09-13T00:36:02.676Z,794.1
2018-09-13T00:36:06.881Z,794.13
2018-09-13T00:36:11.184Z,794.09
2018-09-13T00:36:15.295Z,794.07
2018-09-13T00:36:19.613Z,794.05
2018-09-13T00:36:23.702Z,794.09
2018-09-13T00:36:28.028Z,794.09
2018-09-13T00:36:32.338Z,794.09
2018-09-13T00:36:36.430Z,794.1
2018-09-13T00:36:40.409Z,794.07
2018-09-13T00:36:44.607Z,794.06
2018-09-13T00:36:48.748Z,794.08
2018-09-13T00:36:53.055Z,794.07
2018-09-13T00:36:57.365Z,794.07
2018-09-13T00:37:01.586Z,794.01
2018-09-13T00:37:05.888Z,793.99
2018-09-13T00:37:10.096Z,794.02
2018-09-13T00:37:14.403Z,794.04
2018-09-13T00:37:18.404Z,793.97
2018-09-13T00:37:22.603Z,794.02
2018-09-13T00:37:26.696Z,794.07
2018-09-13T00:37:30.895Z,794.04
2018-09-13T00:37:35.092Z,794.03
2018-09-13T00:37:39.400Z,793.97
2018-09-13T00:37:43.492Z,794.01
2018-09-13T00:37:47.808Z,793.96
2018-09-13T00:37:52.117Z,794
2018-09-13T00:37:56.317Z,794.03
2018-09-13T00:38:00.304Z,794
2018-09-13T00:38:04.397Z,793.95
2018-09-13T00:38:08.701Z,793.95
2018-09-13T00:38:12.894Z,793.98
2018-09-13T00:38:17.095Z,794.01
2018-09-13T00:38:21.197Z,793.99
2018-09-13T00:38:25.402Z,793.91
2018-09-13T00:38:29.598Z,793.99
2018-09-13T00:38:33.799Z,793.98
2018-09-13T00:38:38.000Z,793.93
2018-09-13T00:38:42.091Z,793.98
2018-09-13T00:38:46.188Z,793.93
2018-09-13T00:38:50.387Z,793.96
2018-09-13T00:38:54.586Z,793.96
2018-09-13T00:38:58.685Z,793.97
2018-09-13T00:39:02.667Z,793.99
2018-09-13T00:39:06.864Z,793.98
2018-09-13T00:39:11.170Z,793.97
2018-09-13T00:39:15.473Z,793.98
2018-09-13T00:39:19.462Z,793.97
2018-09-13T00:39:23.657Z,793.97
2018-09-13T00:39:27.766Z,793.99
2018-09-13T00:39:32.078Z,793.99
2018-09-13T00:39:36.280Z,794
2018-09-13T00:39:40.594Z,793.99
2018-09-13T00:39:44.813Z,793.99
2018-09-13T00:39:49.012Z,794.01
2018-09-13T00:39:53.221Z,794
2018-09-13T00:39:57.530Z,794.02
2018-09-13T00:40:01.728Z,794.02
2018-09-13T00:40:05.707Z,793.99
2018-09-13T00:40:10.032Z,794.01
2018-09-13T00:40:14.241Z,794.03
2018-09-13T00:40:18.344Z,793.99
2018-09-13T00:40:22.432Z,793.99
2018-09-13T00:40:26.641Z,793.96
2018-09-13T00:40:30.954Z,794.03
2018-09-13T00:40:35.264Z,794.02
2018-09-13T00:40:39.459Z,794.01
2018-09-13T00:40:43.660Z,794.01
2018-09-13T00:40:47.975Z,794
2018-09-13T00:40:52.171Z,794.02
2018-09-13T00:40:56.473Z,794.01
2018-09-13T00:41:00.668Z,794
2018-09-13T00:41:04.813Z,794
2018-09-13T00:41:09.009Z,794.01
2018-09-13T00:41:13.326Z,794.02
2018-09-13T00:41:17.632Z,794
2018-09-13T00:41:21.828Z,794
2018-09-13T00:41:26.132Z,793.99
2018-09-13T00:41:30.223Z,794
2018-09-13T00:41:34.422Z,794
2018-09-13T00:41:38.630Z,794
2018-09-13T00:41:42.837Z,793.97
2018-09-13T00:41:47.038Z,793.98
2018-09-13T00:41:51.343Z,794.01
2018-09-13T00:41:55.543Z,794
2018-09-13T00:41:59.854Z,793.99
2018-09-13T00:42:03.839Z,793.97
2018-09-13T00:42:08.158Z,793.94
2018-09-13T00:42:12.405Z,793.98
2018-09-13T00:42:16.715Z,794.02
2018-09-13T00:42:20.933Z,793.99
2018-09-13T00:42:24.920Z,793.96
2018-09-13T00:42:29.124Z,793.98
2018-09-13T00:42:33.430Z,793.93
2018-09-13T00:42:37.740Z,793.99
2018-09-13T00:42:42.049Z,793.99
2018-09-13T00:42:46.034Z,793.97
2018-09-13T00:42:50.387Z,793.98
2018-09-13T00:42:54.583Z,793.99
2018-09-13T00:42:58.889Z,794
2018-09-13T00:43:02.888Z,793.96
2018-09-13T00:43:06.979Z,793.95
2018-09-13T00:43:11.287Z,793.98
2018-09-13T00:43:15.598Z,793.98
2018-09-13T00:43:19.697Z,793.98
2018-09-13T00:43:24.019Z,793.96
2018-09-13T00:43:28.327Z,793.97
2018-09-13T00:43:32.531Z,793.97
2018-09-13T00:43:36.729Z,793.98
2018-09-13T00:43:40.829Z,793.99
2018-09-13T00:43:45.038Z,793.95
2018-09-13T00:43:49.234Z,793.97
2018-09-13T00:43:53.437Z,793.98
2018-09-13T00:43:57.635Z,793.98
2018-09-13T00:44:01.951Z,793.95
2018-09-13T00:44:05.829Z,793.95
2018-09-13T00:44:10.040Z,793.96
2018-09-13T00:44:14.134Z,793.97
2018-09-13T00:44:18.337Z,793.96
2018-09-13T00:44:22.535Z,793.94
2018-09-13T00:44:26.736Z,793.96
2018-09-13T00:44:30.831Z,793.95
2018-09-13T00:44:35.025Z,793.94
2018-09-13T00:44:39.230Z,793.93
2018-09-13T00:44:43.429Z,793.88
2018-09-13T00:44:47.737Z,793.93
2018-09-13T00:44:52.041Z,793.96
2018-09-13T00:44:56.242Z,793.93
2018-09-13T00:45:00.336Z,793.93
2018-09-13T00:45:04.448Z,793.94
2018-09-13T00:45:08.769Z,793.93
2018-09-13T00:45:12.979Z,793.94
2018-09-13T00:45:16.968Z,793.93
2018-09-13T00:45:21.176Z,793.95
2018-09-13T00:45:25.482Z,793.96
2018-09-13T00:45:29.573Z,793.96
2018-09-13T00:45:33.890Z,793.95
2018-09-13T00:45:38.089Z,793.92
2018-09-13T00:45:42.187Z,793.9
2018-09-13T00:45:46.392Z,793.92
2018-09-13T00:45:50.383Z,793.92
2018-09-13T00:45:54.584Z,793.93
2018-09-13T00:45:58.796Z,793.91
2018-09-13T00:46:03.139Z,793.87
2018-09-13T00:46:07.334Z,793.9
2018-09-13T00:46:11.646Z,793.86
2018-09-13T00:46:15.947Z,793.87
2018-09-13T00:46:20.143Z,793.9
2018-09-13T00:46:24.350Z,793.91
2018-09-13T00:46:28.653Z,793.87
2018-09-13T00:46:32.961Z,793.88
2018-09-13T00:46:37.202Z,793.83
2018-09-13T00:46:41.505Z,793.88
2018-09-13T00:46:45.708Z,793.85
2018-09-13T00:46:50.010Z,793.85
2018-09-13T00:46:54.107Z,793.86
2018-09-13T00:46:58.409Z,793.84
2018-09-13T00:47:02.497Z,793.84
2018-09-13T00:47:06.695Z,793.84
2018-09-13T00:47:10.900Z,793.81
2018-09-13T00:47:15.204Z,793.84
2018-09-13T00:47:19.515Z,793.82
2018-09-13T00:47:23.715Z,793.84
2018-09-13T00:47:27.922Z,793.76
2018-09-13T00:47:32.012Z,793.79
2018-09-13T00:47:36.218Z,793.8
2018-09-13T00:47:40.311Z,793.77
2018-09-13T00:47:44.408Z,793.76
2018-09-13T00:47:48.714Z,793.77
2018-09-13T00:47:53.023Z,793.76
2018-09-13T00:47:57.111Z,793.77
2018-09-13T00:48:01.417Z,793.76
2018-09-13T00:48:05.516Z,793.75
2018-09-13T00:48:09.713Z,793.74
2018-09-13T00:48:14.022Z,793.75
2018-09-13T00:48:18.275Z,793.72
2018-09-13T00:48:22.587Z,793.71
2018-09-13T00:48:26.787Z,793.69
2018-09-13T00:48:30.991Z,793.72
2018-09-13T00:48:35.196Z,793.7
2018-09-13T00:48:39.499Z,793.69
2018-09-13T00:48:43.599Z,793.73
2018-09-13T00:48:47.800Z,793.69
2018-09-13T00:48:51.894Z,793.72
2018-09-13T00:48:56.095Z,793.68
2018-09-13T00:49:00.297Z,793.71
2018-09-13T00:49:04.534Z,793.69
2018-09-13T00:49:08.747Z,793.67
2018-09-13T00:49:13.054Z,793.71
2018-09-13T00:49:17.413Z,793.64
2018-09-13T00:49:21.615Z,793.59
2018-09-13T00:49:25.600Z,793.66
2018-09-13T00:49:29.824Z,793.65
2018-09-13T00:49:34.132Z,793.67
2018-09-13T00:49:38.225Z,793.62
2018-09-13T00:49:42.420Z,793.64
2018-09-13T00:49:46.632Z,793.61
2018-09-13T00:49:50.830Z,793.56
2018-09-13T00:49:55.138Z,793.62
2018-09-13T00:49:59.234Z,793.59
2018-09-13T00:50:03.275Z,793.62
2018-09-13T00:50:07.363Z,793.59
2018-09-13T00:50:11.459Z,793.57
2018-09-13T00:50:15.759Z,793.58
2018-09-13T00:50:20.069Z,793.55
2018-09-13T00:50:24.161Z,793.58
2018-09-13T00:50:28.359Z,793.57
2018-09-13T00:50:32.462Z,793.55
2018-09-13T00:50:36.660Z,793.57
2018-09-13T00:50:40.906Z,793.47
2018-09-13T00:50:45.103Z,793.46
2018-09-13T00:50:49.191Z,793.45
2018-09-13T00:50:53.494Z,793.5
2018-09-13T00:50:57.585Z,793.47
2018-09-13T00:51:01.787Z,793.46
2018-09-13T00:51:05.875Z,793.47
2018-09-13T00:51:10.071Z,793.43
2018-09-13T00:51:14.262Z,793.47
2018-09-13T00:51:18.394Z,793.46
2018-09-13T00:51:22.491Z,793.46
2018-09-13T00:51:26.683Z,793.47
2018-09-13T00:51:31.002Z,793.43
2018-09-13T00:51:35.207Z,793.41
2018-09-13T00:51:39.412Z,793.4
2018-09-13T00:51:43.521Z,793.36
2018-09-13T00:51:47.722Z,793.42
2018-09-13T00:51:51.714Z,793.4
2018-09-13T00:51:55.911Z,793.38
2018-09-13T00:52:00.217Z,793.37
2018-09-13T00:52:04.203Z,793.41
2018-09-13T00:52:08.506Z,793.38
2018-09-13T00:52:12.702Z,793.38
2018-09-13T00:52:16.899Z,793.38
2018-09-13T00:52:21.197Z,793.38
2018-09-13T00:52:25.396Z,793.36
2018-09-13T00:52:29.484Z,793.36
2018-09-13T00:52:33.709Z,793.36
2018-09-13T00:52:37.910Z,793.38
2018-09-13T00:52:42.216Z,793.36